sensor_id;sensor_type;location;lat;lon;timestamp;pressure;altitude;pressure_sealevel;temperature;humidity
67980;BME280;54760;47.490;19.030;2024-03-02T00:02:06;99512.44;;;11.98;86.74
67980;BME280;54760;47.490;19.030;2024-03-02T00:04:32;99511.34;;;12.08;86.58
67980;BME280;54760;47.490;19.030;2024-03-02T00:06:57;99520.66;;;12.10;87.07
67980;BME280;54760;47.490;19.030;2024-03-02T00:09:23;99513.00;;;12.05;87.29
67980;BME280;54760;47.490;19.030;2024-03-02T00:11:48;99495.78;;;12.39;85.12
67980;BME280;54760;47.490;19.030;2024-03-02T00:14:14;99497.81;;;12.13;86.08
67980;BME280;54760;47.490;19.030;2024-03-02T00:16:40;99502.50;;;11.91;87.73
67980;BME280;54760;47.490;19.030;2024-03-02T00:19:06;99502.72;;;11.71;88.80
67980;BME280;54760;47.490;19.030;2024-03-02T00:21:32;99493.41;;;11.56;89.37
67980;BME280;54760;47.490;19.030;2024-03-02T00:23:59;99493.62;;;11.87;88.93
67980;BME280;54760;47.490;19.030;2024-03-02T00:26:25;99492.94;;;11.96;88.28
67980;BME280;54760;47.490;19.030;2024-03-02T00:28:54;99491.22;;;11.77;88.47
67980;BME280;54760;47.490;19.030;2024-03-02T00:31:22;99488.09;;;12.00;86.95
67980;BME280;54760;47.490;19.030;2024-03-02T00:33:48;99485.91;;;11.95;87.36
67980;BME280;54760;47.490;19.030;2024-03-02T00:36:15;99488.75;;;12.04;nan
67980;BME280;54760;47.490;19.030;2024-03-02T00:38:48;99486.00;;;12.04;86.79
67980;BME280;54760;47.490;19.030;2024-03-02T00:41:27;99501.28;;;11.80;87.80
67980;BME280;54760;47.490;19.030;2024-03-02T00:44:12;99503.72;;;11.78;88.07
67980;BME280;54760;47.490;19.030;2024-03-02T00:46:42;99506.31;;;11.94;87.33
67980;BME280;54760;47.490;19.030;2024-03-02T00:49:18;99498.44;;;11.83;85.67
67980;BME280;54760;47.490;19.030;2024-03-02T00:51:48;99494.81;;;11.73;86.61
67980;BME280;54760;47.490;19.030;2024-03-02T00:54:20;99503.13;;;11.95;85.92
67980;BME280;54760;47.490;19.030;2024-03-02T00:56:47;99507.22;;;11.78;85.78
67980;BME280;54760;47.490;19.030;2024-03-02T00:59:12;99514.25;;;11.92;86.04
67980;BME280;54760;47.490;19.030;2024-03-02T01:01:38;99503.34;;;12.01;84.79
67980;BME280;54760;47.490;19.030;2024-03-02T01:04:03;99504.03;;;11.92;84.53
67980;BME280;54760;47.490;19.030;2024-03-02T01:06:29;99500.41;;;11.83;83.38
67980;BME280;54760;47.490;19.030;2024-03-02T01:08:55;99502.50;;;11.66;85.27
67980;BME280;54760;47.490;19.030;2024-03-02T01:11:20;99508.09;;;11.62;85.30
67980;BME280;54760;47.490;19.030;2024-03-02T01:13:48;99503.16;;;11.57;84.88
67980;BME280;54760;47.490;19.030;2024-03-02T01:16:14;99491.09;;;11.80;83.46
67980;BME280;54760;47.490;19.030;2024-03-02T01:18:41;99496.47;;;11.84;82.66
67980;BME280;54760;47.490;19.030;2024-03-02T01:21:06;99496.22;;;11.65;82.39
67980;BME280;54760;47.490;19.030;2024-03-02T01:23:31;99492.84;;;11.74;81.48
67980;BME280;54760;47.490;19.030;2024-03-02T01:25:57;99484.38;;;11.68;81.60
67980;BME280;54760;47.490;19.030;2024-03-02T01:28:22;99495.47;;;11.65;82.39
67980;BME280;54760;47.490;19.030;2024-03-02T01:30:48;99483.41;;;11.75;81.49
67980;BME280;54760;47.490;19.030;2024-03-02T01:33:14;99469.69;;;11.88;79.56
67980;BME280;54760;47.490;19.030;2024-03-02T01:35:39;99472.75;;;11.64;80.98
67980;BME280;54760;47.490;19.030;2024-03-02T01:38:05;99469.25;;;11.64;80.03
67980;BME280;54760;47.490;19.030;2024-03-02T01:40:34;99461.03;;;11.64;81.22
67980;BME280;54760;47.490;19.030;2024-03-02T01:42:59;99452.50;;;11.62;80.42
67980;BME280;54760;47.490;19.030;2024-03-02T01:45:25;99453.34;;;11.59;80.41
67980;BME280;54760;47.490;19.030;2024-03-02T01:47:50;99456.00;;;11.50;80.96
67980;BME280;54760;47.490;19.030;2024-03-02T01:50:16;99455.44;;;11.67;80.80
67980;BME280;54760;47.490;19.030;2024-03-02T01:52:49;99448.88;;;11.78;80.39
67980;BME280;54760;47.490;19.030;2024-03-02T01:55:15;99450.53;;;11.50;80.96
67980;BME280;54760;47.490;19.030;2024-03-02T01:57:40;99451.41;;;11.47;82.14
67980;BME280;54760;47.490;19.030;2024-03-02T02:00:06;99448.88;;;11.78;81.44
67980;BME280;54760;47.490;19.030;2024-03-02T02:02:32;99448.31;;;11.70;81.72
67980;BME280;54760;47.490;19.030;2024-03-02T02:04:57;99461.59;;;11.59;82.10
67980;BME280;54760;47.490;19.030;2024-03-02T02:07:22;99463.47;;;11.75;81.06
67980;BME280;54760;47.490;19.030;2024-03-02T02:09:48;99464.75;;;11.70;81.04
67980;BME280;54760;47.490;19.030;2024-03-02T02:12:14;99470.34;;;11.79;79.96
67980;BME280;54760;47.490;19.030;2024-03-02T02:14:47;99470.91;;;11.74;80.46
67980;BME280;54760;47.490;19.030;2024-03-02T02:17:12;99473.09;;;11.79;80.20
67980;BME280;54760;47.490;19.030;2024-03-02T02:19:40;99482.31;;;11.60;81.13
67980;BME280;54760;47.490;19.030;2024-03-02T02:22:06;99479.47;;;11.76;80.51
67980;BME280;54760;47.490;19.030;2024-03-02T02:24:31;99476.28;;;11.90;79.96
67980;BME280;54760;47.490;19.030;2024-03-02T02:26:56;99486.72;;;11.32;82.77
67980;BME280;54760;47.490;19.030;2024-03-02T02:29:22;99484.41;;;11.56;81.23
67980;BME280;54760;47.490;19.030;2024-03-02T02:31:47;99490.87;;;11.62;81.04
67980;BME280;54760;47.490;19.030;2024-03-02T02:34:14;99488.88;;;11.50;81.32
67980;BME280;54760;47.490;19.030;2024-03-02T02:36:39;99489.00;;;11.71;80.79
67980;BME280;54760;47.490;19.030;2024-03-02T02:39:06;99490.53;;;11.85;80.19
67980;BME280;54760;47.490;19.030;2024-03-02T02:41:32;99490.56;;;11.73;80.20
67980;BME280;54760;47.490;19.030;2024-03-02T02:43:58;99490.44;;;11.76;80.56
67980;BME280;54760;47.490;19.030;2024-03-02T02:46:23;99486.59;;;11.48;81.14
67980;BME280;54760;47.490;19.030;2024-03-02T02:48:49;99490.75;;;11.65;80.39
67980;BME280;54760;47.490;19.030;2024-03-02T02:51:16;99477.03;;;11.78;79.76
67980;BME280;54760;47.490;19.030;2024-03-02T02:53:42;99477.16;;;11.62;80.15
67980;BME280;54760;47.490;19.030;2024-03-02T02:56:07;99482.84;;;11.55;80.46
67980;BME280;54760;47.490;19.030;2024-03-02T02:58:32;99467.50;;;11.70;79.31
67980;BME280;54760;47.490;19.030;2024-03-02T03:00:58;99474.53;;;11.84;78.86
67980;BME280;54760;47.490;19.030;2024-03-02T03:03:23;99468.28;;;11.45;77.46
67980;BME280;54760;47.490;19.030;2024-03-02T03:05:49;99477.81;;;11.41;79.97
67980;BME280;54760;47.490;19.030;2024-03-02T03:08:14;99470.03;;;11.52;80.12
67980;BME280;54760;47.490;19.030;2024-03-02T03:10:41;99482.09;;;11.42;79.24
67980;BME280;54760;47.490;19.030;2024-03-02T03:13:06;99481.88;;;11.49;79.22
67980;BME280;54760;47.490;19.030;2024-03-02T03:15:34;99496.22;;;11.40;79.76
67980;BME280;54760;47.490;19.030;2024-03-02T03:18:02;99493.94;;;11.64;79.44
67980;BME280;54760;47.490;19.030;2024-03-02T03:20:29;99496.06;;;11.73;78.83
67980;BME280;54760;47.490;19.030;2024-03-02T03:22:54;99489.13;;;11.81;78.20
67980;BME280;54760;47.490;19.030;2024-03-02T03:25:19;99494.91;;;11.83;76.96
67980;BME280;54760;47.490;19.030;2024-03-02T03:27:45;99485.16;;;11.18;77.71
67980;BME280;54760;47.490;19.030;2024-03-02T03:30:11;99486.03;;;11.41;76.79
67980;BME280;54760;47.490;19.030;2024-03-02T03:32:37;99481.88;;;11.49;75.91
67980;BME280;54760;47.490;19.030;2024-03-02T03:35:03;99487.59;;;11.42;76.35
67980;BME280;54760;47.490;19.030;2024-03-02T03:37:29;99483.41;;;11.50;76.01
67980;BME280;54760;47.490;19.030;2024-03-02T03:39:58;99487.12;;;11.68;76.11
67980;BME280;54760;47.490;19.030;2024-03-02T03:42:24;99486.81;;;11.79;75.29
67980;BME280;54760;47.490;19.030;2024-03-02T03:44:49;99491.09;;;11.80;75.18
67980;BME280;54760;47.490;19.030;2024-03-02T03:47:15;99492.63;;;11.81;74.71
67980;BME280;54760;47.490;19.030;2024-03-02T03:49:40;99496.56;;;11.67;74.74
67980;BME280;54760;47.490;19.030;2024-03-02T03:52:06;99497.25;;;11.34;75.64
67980;BME280;54760;47.490;19.030;2024-03-02T03:54:31;99496.53;;;11.04;76.78
67980;BME280;54760;47.490;19.030;2024-03-02T03:56:56;99503.25;;;11.28;76.46
67980;BME280;54760;47.490;19.030;2024-03-02T03:59:22;99506.44;;;11.27;75.94
67980;BME280;54760;47.490;19.030;2024-03-02T04:01:47;99504.47;;;11.27;75.58
67980;BME280;54760;47.490;19.030;2024-03-02T04:04:13;99505.31;;;11.24;75.99
67980;BME280;54760;47.490;19.030;2024-03-02T04:06:38;99522.44;;;11.28;76.70
67980;BME280;54760;47.490;19.030;2024-03-02T04:09:03;99513.44;;;11.41;76.94
67980;BME280;54760;47.490;19.030;2024-03-02T04:11:29;99517.97;;;11.47;76.63
67980;BME280;54760;47.490;19.030;2024-03-02T04:13:55;99517.16;;;11.34;76.66
67980;BME280;54760;47.490;19.030;2024-03-02T04:16:21;99517.84;;;11.38;77.28
67980;BME280;54760;47.490;19.030;2024-03-02T04:18:46;99518.16;;;11.40;77.52
67980;BME280;54760;47.490;19.030;2024-03-02T04:21:11;99523.63;;;11.27;78.48
67980;BME280;54760;47.490;19.030;2024-03-02T04:23:37;99525.56;;;11.14;79.28
67980;BME280;54760;47.490;19.030;2024-03-02T04:26:02;99526.09;;;11.09;80.00
67980;BME280;54760;47.490;19.030;2024-03-02T04:28:28;99523.34;;;10.84;82.15
67980;BME280;54760;47.490;19.030;2024-03-02T04:30:53;99524.84;;;10.85;82.60
67980;BME280;54760;47.490;19.030;2024-03-02T04:33:19;99524.53;;;10.83;82.78
67980;BME280;54760;47.490;19.030;2024-03-02T04:35:44;99523.56;;;10.90;82.47
67980;BME280;54760;47.490;19.030;2024-03-02T04:38:09;99525.38;;;11.09;82.36
67980;BME280;54760;47.490;19.030;2024-03-02T04:40:35;99523.25;;;11.00;83.48
67980;BME280;54760;47.490;19.030;2024-03-02T04:43:00;99524.47;;;10.99;83.90
67980;BME280;54760;47.490;19.030;2024-03-02T04:45:26;99525.25;;;11.12;83.23
67980;BME280;54760;47.490;19.030;2024-03-02T04:47:51;99527.03;;;11.19;83.09
67980;BME280;54760;47.490;19.030;2024-03-02T04:50:16;99521.94;;;11.05;83.80
67980;BME280;54760;47.490;19.030;2024-03-02T04:52:42;99529.84;;;11.03;84.23
67980;BME280;54760;47.490;19.030;2024-03-02T04:55:07;99527.13;;;10.74;85.53
67980;BME280;54760;47.490;19.030;2024-03-02T04:57:50;99525.75;;;10.95;84.61
67980;BME280;54760;47.490;19.030;2024-03-02T05:00:16;99528.63;;;11.04;84.76
67980;BME280;54760;47.490;19.030;2024-03-02T05:02:42;99524.00;;;11.01;84.98
67980;BME280;54760;47.490;19.030;2024-03-02T05:05:08;99531.41;;;11.16;84.69
67980;BME280;54760;47.490;19.030;2024-03-02T05:07:33;99530.44;;;10.81;86.04
67980;BME280;54760;47.490;19.030;2024-03-02T05:09:58;99521.16;;;10.92;86.76
67980;BME280;54760;47.490;19.030;2024-03-02T05:12:24;99517.22;;;10.93;86.76
67980;BME280;54760;47.490;19.030;2024-03-02T05:15:14;99520.53;;;10.71;87.84
67980;BME280;54760;47.490;19.030;2024-03-02T05:17:41;99527.34;;;11.08;86.27
67980;BME280;54760;47.490;19.030;2024-03-02T05:20:08;99523.25;;;11.00;86.09
67980;BME280;54760;47.490;19.030;2024-03-02T05:22:34;99524.09;;;10.84;87.09
67980;BME280;54760;47.490;19.030;2024-03-02T05:25:00;99530.72;;;10.71;87.80
67980;BME280;54760;47.490;19.030;2024-03-02T05:27:29;99531.53;;;10.84;87.51
67980;BME280;54760;47.490;19.030;2024-03-02T05:29:54;99542.56;;;10.52;89.26
67980;BME280;54760;47.490;19.030;2024-03-02T05:32:19;99539.56;;;10.62;89.93
67980;BME280;54760;47.490;19.030;2024-03-02T05:34:45;99540.28;;;10.79;88.90
67980;BME280;54760;47.490;19.030;2024-03-02T05:37:10;99537.56;;;10.92;88.17
67980;BME280;54760;47.490;19.030;2024-03-02T05:39:36;99529.34;;;10.50;89.91
67980;BME280;54760;47.490;19.030;2024-03-02T05:42:01;99525.59;;;10.73;90.04
67980;BME280;54760;47.490;19.030;2024-03-02T05:44:28;99520.00;;;10.76;88.47
67980;BME280;54760;47.490;19.030;2024-03-02T05:46:53;99521.44;;;10.81;88.71
67980;BME280;54760;47.490;19.030;2024-03-02T05:49:19;99531.53;;;10.84;88.87
67980;BME280;54760;47.490;19.030;2024-03-02T05:51:44;99532.03;;;11.08;87.83
67980;BME280;54760;47.490;19.030;2024-03-02T05:54:09;99545.16;;;11.00;88.82
67980;BME280;54760;47.490;19.030;2024-03-02T05:56:35;99545.59;;;10.99;89.20
67980;BME280;54760;47.490;19.030;2024-03-02T05:59:01;99543.97;;;11.01;89.34
67980;BME280;54760;47.490;19.030;2024-03-02T06:01:38;99548.81;;;10.81;90.11
67980;BME280;54760;47.490;19.030;2024-03-02T06:04:04;99564.06;;;10.82;90.22
67980;BME280;54760;47.490;19.030;2024-03-02T06:06:29;99556.47;;;11.02;90.07
67980;BME280;54760;47.490;19.030;2024-03-02T06:08:54;99575.03;;;10.95;90.31
67980;BME280;54760;47.490;19.030;2024-03-02T06:11:20;99569.28;;;11.05;89.71
67980;BME280;54760;47.490;19.030;2024-03-02T06:13:45;99565.81;;;11.17;88.98
67980;BME280;54760;47.490;19.030;2024-03-02T06:16:11;99568.72;;;10.98;89.76
67980;BME280;54760;47.490;19.030;2024-03-02T06:18:36;99572.88;;;11.02;89.49
67980;BME280;54760;47.490;19.030;2024-03-02T06:21:02;99577.53;;;11.18;88.84
67980;BME280;54760;47.490;19.030;2024-03-02T06:23:28;99571.28;;;11.17;88.45
67980;BME280;54760;47.490;19.030;2024-03-02T06:25:53;99568.72;;;10.98;89.37
67980;BME280;54760;47.490;19.030;2024-03-02T06:28:19;99579.78;;;10.94;89.44
67980;BME280;54760;47.490;19.030;2024-03-02T06:30:44;99569.75;;;11.16;88.87
67980;BME280;54760;47.490;19.030;2024-03-02T06:33:10;99569.38;;;11.02;89.73
67980;BME280;54760;47.490;19.030;2024-03-02T06:35:35;99568.50;;;10.76;91.47
67980;BME280;54760;47.490;19.030;2024-03-02T06:38:01;99576.47;;;10.70;92.47
67980;BME280;54760;47.490;19.030;2024-03-02T06:40:27;99569.81;;;11.00;89.81
67980;BME280;54760;47.490;19.030;2024-03-02T06:42:52;99586.69;;;10.70;91.67
67980;BME280;54760;47.490;19.030;2024-03-02T06:45:18;99584.91;;;10.92;90.63
67980;BME280;54760;47.490;19.030;2024-03-02T06:47:43;99573.91;;;11.08;89.49
67980;BME280;54760;47.490;19.030;2024-03-02T06:50:09;99575.22;;;11.16;88.83
67980;BME280;54760;47.490;19.030;2024-03-02T06:52:35;99576.09;;;11.13;89.41
67980;BME280;54760;47.490;19.030;2024-03-02T06:55:00;99578.47;;;10.99;90.07
67980;BME280;54760;47.490;19.030;2024-03-02T06:57:26;99583.59;;;10.68;91.55
67980;BME280;54760;47.490;19.030;2024-03-02T06:59:51;99577.31;;;11.12;90.11
67980;BME280;54760;47.490;19.030;2024-03-02T07:02:20;99586.59;;;11.02;88.55
67980;BME280;54760;47.490;19.030;2024-03-02T07:04:45;99584.56;;;10.90;91.41
67980;BME280;54760;47.490;19.030;2024-03-02T07:07:11;99577.47;;;10.93;90.15
67980;BME280;54760;47.490;19.030;2024-03-02T07:09:36;99578.00;;;11.00;90.39
67980;BME280;54760;47.490;19.030;2024-03-02T07:12:02;99584.19;;;11.04;89.90
67980;BME280;54760;47.490;19.030;2024-03-02T07:14:27;99581.59;;;11.13;90.11
67980;BME280;54760;47.490;19.030;2024-03-02T07:17:12;99586.62;;;10.86;92.02
67980;BME280;54760;47.490;19.030;2024-03-02T07:19:38;99595.06;;;10.63;92.55
67980;BME280;54760;47.490;19.030;2024-03-02T07:22:07;99589.59;;;10.63;93.25
67980;BME280;54760;47.490;19.030;2024-03-02T07:24:43;99596.47;;;10.83;92.33
67980;BME280;54760;47.490;19.030;2024-03-02T07:27:09;99593.38;;;11.10;91.46
67980;BME280;54760;47.490;19.030;2024-03-02T07:29:34;99591.41;;;10.98;92.15
67980;BME280;54760;47.490;19.030;2024-03-02T07:32:00;99599.25;;;10.96;92.43
67980;BME280;54760;47.490;19.030;2024-03-02T07:34:26;99591.44;;;10.82;92.44
67980;BME280;54760;47.490;19.030;2024-03-02T07:36:51;99583.78;;;11.18;91.03
67980;BME280;54760;47.490;19.030;2024-03-02T07:39:17;99591.91;;;11.35;89.59
67980;BME280;54760;47.490;19.030;2024-03-02T07:41:42;99585.41;;;11.16;90.58
67980;BME280;54760;47.490;19.030;2024-03-02T07:44:08;99586.94;;;11.17;90.68
67980;BME280;54760;47.490;19.030;2024-03-02T07:46:34;99591.84;;;11.09;90.93
67980;BME280;54760;47.490;19.030;2024-03-02T07:49:00;99596.06;;;11.26;90.75
67980;BME280;54760;47.490;19.030;2024-03-02T07:51:25;99596.19;;;11.36;90.00
67980;BME280;54760;47.490;19.030;2024-03-02T07:53:51;99607.56;;;10.93;92.26
67980;BME280;54760;47.490;19.030;2024-03-02T07:56:16;99605.41;;;11.00;92.59
67980;BME280;54760;47.490;19.030;2024-03-02T07:58:48;99607.84;;;10.82;93.69
67980;BME280;54760;47.490;19.030;2024-03-02T08:01:14;99606.66;;;10.83;93.82
67980;BME280;54760;47.490;19.030;2024-03-02T08:03:39;99610.94;;;10.84;94.33
67980;BME280;54760;47.490;19.030;2024-03-02T08:06:05;99615.03;;;10.92;94.28
67980;BME280;54760;47.490;19.030;2024-03-02T08:08:31;99616.06;;;10.82;95.42
67980;BME280;54760;47.490;19.030;2024-03-02T08:10:56;99615.97;;;11.14;93.54
67980;BME280;54760;47.490;19.030;2024-03-02T08:13:22;99623.00;;;11.15;93.39
67980;BME280;54760;47.490;19.030;2024-03-02T08:15:47;99617.00;;;10.92;93.80
67980;BME280;54760;47.490;19.030;2024-03-02T08:18:12;99616.28;;;11.04;93.60
67980;BME280;54760;47.490;19.030;2024-03-02T08:20:38;99626.81;;;10.60;96.64
67980;BME280;54760;47.490;19.030;2024-03-02T08:23:04;99618.50;;;10.64;96.88
67980;BME280;54760;47.490;19.030;2024-03-02T08:25:30;99621.06;;;11.00;95.43
67980;BME280;54760;47.490;19.030;2024-03-02T08:27:55;99622.53;;;11.04;94.74
67980;BME280;54760;47.490;19.030;2024-03-02T08:30:21;99612.37;;;11.17;93.52
67980;BME280;54760;47.490;19.030;2024-03-02T08:32:46;99622.53;;;11.04;95.20
67980;BME280;54760;47.490;19.030;2024-03-02T08:35:12;99617.38;;;11.06;95.64
67980;BME280;54760;47.490;19.030;2024-03-02T08:37:40;99619.00;;;11.33;94.13
67980;BME280;54760;47.490;19.030;2024-03-02T08:40:07;99618.00;;;11.26;94.41
67980;BME280;54760;47.490;19.030;2024-03-02T08:42:33;99619.94;;;11.13;94.67
67980;BME280;54760;47.490;19.030;2024-03-02T08:44:59;99624.62;;;11.13;94.33
67980;BME280;54760;47.490;19.030;2024-03-02T08:47:26;99623.88;;;10.67;98.77
67980;BME280;54760;47.490;19.030;2024-03-02T08:49:52;99619.84;;;10.72;98.85
67980;BME280;54760;47.490;19.030;2024-03-02T08:52:17;99622.06;;;10.77;98.17
67980;BME280;54760;47.490;19.030;2024-03-02T08:54:42;99622.22;;;11.15;97.24
67980;BME280;54760;47.490;19.030;2024-03-02T08:57:08;99619.94;;;11.13;96.43
67980;BME280;54760;47.490;19.030;2024-03-02T08:59:33;99618.66;;;10.73;98.13
67980;BME280;54760;47.490;19.030;2024-03-02T09:01:59;99624.12;;;10.73;99.97
67980;BME280;54760;47.490;19.030;2024-03-02T09:04:24;99618.84;;;10.95;98.00
67980;BME280;54760;47.490;19.030;2024-03-02T09:06:50;99611.78;;;10.81;97.63
67980;BME280;54760;47.490;19.030;2024-03-02T09:09:15;99623.19;;;10.79;98.88
67980;BME280;54760;47.490;19.030;2024-03-02T09:11:40;99618.38;;;11.12;97.40
67980;BME280;54760;47.490;19.030;2024-03-02T09:14:06;99623.88;;;10.67;99.78
67980;BME280;54760;47.490;19.030;2024-03-02T09:16:31;99626.16;;;10.85;100.00
67980;BME280;54760;47.490;19.030;2024-03-02T09:18:58;99629.91;;;11.20;97.43
67980;BME280;54760;47.490;19.030;2024-03-02T09:21:23;99624.03;;;11.05;97.84
67980;BME280;54760;47.490;19.030;2024-03-02T09:23:50;99623.38;;;11.01;97.52
67980;BME280;54760;47.490;19.030;2024-03-02T09:26:16;99627.13;;;11.07;97.47
67980;BME280;54760;47.490;19.030;2024-03-02T09:28:45;99624.12;;;11.30;96.23
67980;BME280;54760;47.490;19.030;2024-03-02T09:31:10;99623.19;;;10.79;98.47
67980;BME280;54760;47.490;19.030;2024-03-02T09:33:37;99629.88;;;11.07;98.85
67980;BME280;54760;47.490;19.030;2024-03-02T09:36:04;99634.56;;;10.78;99.70
67980;BME280;54760;47.490;19.030;2024-03-02T09:38:32;99624.81;;;11.06;97.89
67980;BME280;54760;47.490;19.030;2024-03-02T09:40:59;99631.34;;;10.96;97.96
67980;BME280;54760;47.490;19.030;2024-03-02T09:43:26;99633.66;;;11.26;96.52
67980;BME280;54760;47.490;19.030;2024-03-02T09:45:52;99633.03;;;11.35;95.98
67980;BME280;54760;47.490;19.030;2024-03-02T09:48:18;99627.03;;;11.11;96.20
67980;BME280;54760;47.490;19.030;2024-03-02T09:50:46;99635.09;;;10.73;97.80
67980;BME280;54760;47.490;19.030;2024-03-02T09:53:12;99629.88;;;10.78;97.49
67980;BME280;54760;47.490;19.030;2024-03-02T09:55:37;99629.97;;;10.59;97.57
67980;BME280;54760;47.490;19.030;2024-03-02T09:58:04;99624.56;;;11.00;96.23
67980;BME280;54760;47.490;19.030;2024-03-02T10:00:29;99620.63;;;11.01;97.33
67980;BME280;54760;47.490;19.030;2024-03-02T10:02:54;99621.84;;;11.00;98.25
67980;BME280;54760;47.490;19.030;2024-03-02T10:05:26;99627.69;;;11.15;96.31
67980;BME280;54760;47.490;19.030;2024-03-02T10:08:01;99627.81;;;11.11;96.49
67980;BME280;54760;47.490;19.030;2024-03-02T10:10:37;99629.34;;;11.12;95.92
67980;BME280;54760;47.490;19.030;2024-03-02T10:13:07;99630.19;;;11.09;96.73
67980;BME280;54760;47.490;19.030;2024-03-02T10:15:33;99628.47;;;11.15;96.86
67980;BME280;54760;47.490;19.030;2024-03-02T10:17:59;99623.19;;;10.79;99.34
67980;BME280;54760;47.490;19.030;2024-03-02T10:20:27;99630.56;;;10.66;100.00
67980;BME280;54760;47.490;19.030;2024-03-02T10:23:17;99623.09;;;10.83;99.58
67980;BME280;54760;47.490;19.030;2024-03-02T10:25:44;99626.38;;;11.07;97.55
67980;BME280;54760;47.490;19.030;2024-03-02T10:28:10;99627.13;;;11.07;99.12
67980;BME280;54760;47.490;19.030;2024-03-02T10:30:36;99622.84;;;11.35;96.59
67980;BME280;54760;47.490;19.030;2024-03-02T10:33:02;99630.69;;;11.20;97.54
67980;BME280;54760;47.490;19.030;2024-03-02T10:35:28;99619.31;;;11.35;96.11
67980;BME280;54760;47.490;19.030;2024-03-02T10:37:54;99616.94;;;11.37;95.19
67980;BME280;54760;47.490;19.030;2024-03-02T10:40:23;99626.75;;;11.21;96.38
67980;BME280;54760;47.490;19.030;2024-03-02T10:42:50;99627.31;;;11.00;97.06
67980;BME280;54760;47.490;19.030;2024-03-02T10:45:17;99618.38;;;11.12;97.25
67980;BME280;54760;47.490;19.030;2024-03-02T10:47:46;99614.38;;;11.29;96.82
67980;BME280;54760;47.490;19.030;2024-03-02T10:50:12;99618.50;;;11.09;98.34
67980;BME280;54760;47.490;19.030;2024-03-02T10:52:38;99620.72;;;11.14;98.09
67980;BME280;54760;47.490;19.030;2024-03-02T10:55:05;99611.09;;;10.93;99.69
67980;BME280;54760;47.490;19.030;2024-03-02T11:00:06;99618.34;;;11.41;94.89
67980;BME280;54760;47.490;19.030;2024-03-02T11:02:35;99619.94;;;11.13;96.90
67980;BME280;54760;47.490;19.030;2024-03-02T11:05:06;99613.84;;;11.35;96.20
67980;BME280;54760;47.490;19.030;2024-03-02T11:07:33;99615.38;;;11.36;96.86
67980;BME280;54760;47.490;19.030;2024-03-02T11:10:01;99614.09;;;11.11;99.02
67980;BME280;54760;47.490;19.030;2024-03-02T11:12:38;99610.78;;;11.33;95.65
67980;BME280;54760;47.490;19.030;2024-03-02T11:15:09;99611.44;;;11.37;96.05
67980;BME280;54760;47.490;19.030;2024-03-02T11:17:35;99606.25;;;11.13;96.04
67980;BME280;54760;47.490;19.030;2024-03-02T11:20:03;99602.56;;;11.33;96.16
67980;BME280;54760;47.490;19.030;2024-03-02T11:22:29;99603.91;;;11.53;95.37
67980;BME280;54760;47.490;19.030;2024-03-02T11:24:55;99596.97;;;11.49;93.76
67980;BME280;54760;47.490;19.030;2024-03-02T11:28:10;99599.53;;;11.14;95.78
67980;BME280;54760;47.490;19.030;2024-03-02T11:33:08;99591.84;;;11.63;95.35
67980;BME280;54760;47.490;19.030;2024-03-02T11:35:44;99592.19;;;11.53;95.45
67980;BME280;54760;47.490;19.030;2024-03-02T11:38:13;99595.00;;;11.37;97.37
67980;BME280;54760;47.490;19.030;2024-03-02T11:40:39;99587.38;;;11.57;96.75
67980;BME280;54760;47.490;19.030;2024-03-02T11:43:05;99589.25;;;11.98;94.09
67980;BME280;54760;47.490;19.030;2024-03-02T11:45:31;99595.31;;;11.80;95.29
67980;BME280;54760;47.490;19.030;2024-03-02T11:47:59;99586.41;;;12.14;93.06
67980;BME280;54760;47.490;19.030;2024-03-02T11:50:41;99587.84;;;12.06;93.46
67980;BME280;54760;47.490;19.030;2024-03-02T11:53:08;99585.72;;;12.23;92.47
67980;BME280;54760;47.490;19.030;2024-03-02T11:55:35;99584.97;;;12.09;91.70
67980;BME280;54760;47.490;19.030;2024-03-02T11:58:03;99582.00;;;12.17;92.08
67980;BME280;54760;47.490;19.030;2024-03-02T12:00:28;99579.50;;;12.09;91.92
67980;BME280;54760;47.490;19.030;2024-03-02T12:03:20;99582.97;;;11.47;93.95
67980;BME280;54760;47.490;19.030;2024-03-02T12:05:49;99585.75;;;11.97;92.69
67980;BME280;54760;47.490;19.030;2024-03-02T12:08:15;99581.69;;;11.89;91.46
67980;BME280;54760;47.490;19.030;2024-03-02T12:10:40;99590.53;;;11.55;94.35
67980;BME280;54760;47.490;19.030;2024-03-02T12:13:07;99587.31;;;11.32;96.13
67980;BME280;54760;47.490;19.030;2024-03-02T12:15:37;99584.84;;;11.62;94.61
67980;BME280;54760;47.490;19.030;2024-03-02T12:18:03;99581.84;;;11.32;94.96
67980;BME280;54760;47.490;19.030;2024-03-02T12:20:30;99581.34;;;11.62;93.77
67980;BME280;54760;47.490;19.030;2024-03-02T12:22:58;99583.38;;;11.33;94.67
67980;BME280;54760;47.490;19.030;2024-03-02T12:25:24;99582.22;;;11.71;93.00
67980;BME280;54760;47.490;19.030;2024-03-02T12:27:54;99596.87;;;10.98;97.10
67980;BME280;54760;47.490;19.030;2024-03-02T12:30:20;99588.56;;;11.43;94.68
67980;BME280;54760;47.490;19.030;2024-03-02T12:32:47;99594.00;;;11.30;95.53
67980;BME280;54760;47.490;19.030;2024-03-02T12:35:13;99589.94;;;11.22;96.16
67980;BME280;54760;47.490;19.030;2024-03-02T12:37:46;99593.75;;;11.25;95.71
67980;BME280;54760;47.490;19.030;2024-03-02T12:40:13;99582.03;;;11.24;97.75
67980;BME280;54760;47.490;19.030;2024-03-02T12:42:39;99587.13;;;11.64;95.12
67980;BME280;54760;47.490;19.030;2024-03-02T12:45:06;99586.19;;;11.83;94.31
67980;BME280;54760;47.490;19.030;2024-03-02T12:47:33;99585.75;;;11.97;93.07
67980;BME280;54760;47.490;19.030;2024-03-02T12:49:59;99584.56;;;11.32;96.10
67980;BME280;54760;47.490;19.030;2024-03-02T12:52:25;99583.50;;;11.42;95.17
67980;BME280;54760;47.490;19.030;2024-03-02T12:54:50;99591.31;;;11.68;94.83